Time;durP1;ratioP1;P1;durP2;ratioP2;P2;SDS_P1;SDS_P2;PMS_P1;PMS_P2;Temp;Humidity;BMP_temperature;BMP_pressure;BME280_temperature;BME280_humidity;BME280_pressure;Samples;Min_cycle;Max_cycle;Signal;HPM_P1;HPM_P2
2022/05/06 00:00:32;;;;;;;;;;;;;;;19.64;40.91;101647.21;104276;1313;72699;-85
2022/05/06 00:03:49;;;;;;;;;;;;;;;19.64;40.81;101654.37;103357;1319;72530;-85
2022/05/06 00:06:23;;;;;;;;;;;;;;;19.65;40.78;101657.73;103386;1320;61259;-84
2022/05/06 00:09:03;;;;;;;;;;;;;;;19.64;40.80;101659.17;103377;1320;62591;-82
2022/05/06 00:11:40;;;;;;;;;;;;;;;19.64;40.80;101662.05;103360;1320;73889;-81
2022/05/06 00:14:08;;;;;;;;;;;;;;;19.64;40.91;101663.48;103255;1320;73920;-81
2022/05/06 00:16:50;;;;;;;;;;;;;;;19.64;40.80;101665.27;104108;1313;61459;-82
2022/05/06 00:19:38;;;;;;;;;;;;;;;19.64;40.96;101666.15;104248;1313;61806;-88
2022/05/06 00:22:23;;;;;;;;;;;;;;;19.64;40.90;101664.02;104189;1317;72999;-83
2022/05/06 00:25:16;;;;;;;;;;;;;;;19.63;40.90;101664.94;104188;1314;74887;-89
2022/05/06 00:27:50;;;;;;;;;;;;;;;19.64;41.14;101667.79;104276;1313;61298;-85
2022/05/06 00:30:33;;;;;;;;;;;;;;;;;;;;;
2022/05/06 00:33:39;;;;;;;;;;;;;;;19.63;41.04;101665.68;104168;1314;74315;-84
2022/05/06 00:36:20;;;;;;;;;;;;;;;;;;;;;
2022/05/06 00:39:06;;;;;;;;;;;;;;;19.63;40.87;101669.59;104200;1314;61343;-88
2022/05/06 00:41:55;;;;;;;;;;;;;;;19.63;41.08;101670.34;104267;1313;61156;-81
2022/05/06 00:44:32;;;;;;;;;;;;;;;19.63;41.12;101671.75;104240;1313;71272;-86
2022/05/06 00:47:20;;;;;;;;;;;;;;;19.63;41.18;101672.64;104229;1314;73821;-83
2022/05/06 00:50:09;;;;;;;;;;;;;;;19.63;41.24;101676.24;103347;1322;61168;-83
2022/05/06 00:52:54;;;;;;;;;;;;;;;19.63;41.27;101672.83;103691;1319;61295;-84
2022/05/06 00:56:16;;;;;;;;;;;;;;;19.63;41.19;101671.04;103672;1319;72833;-84
2022/05/06 00:58:45;;;;;;;;;;;;;;;19.62;41.18;101669.63;103294;1320;75756;-86
2022/05/06 01:01:31;;;;;;;;;;;;;;;19.63;41.15;101666.23;103243;1320;61601;-83
2022/05/06 01:04:21;;;;;;;;;;;;;;;19.63;41.17;101665.53;103493;1319;61389;-84
2022/05/06 01:07:07;;;;;;;;;;;;;;;19.62;41.28;101666.25;103030;1325;72683;-83
2022/05/06 01:09:54;;;;;;;;;;;;;;;19.63;41.27;101657.33;102691;1326;76793;-81
2022/05/06 01:12:31;;;;;;;;;;;;;;;19.62;41.23;101657.33;102836;1325;60865;-89
2022/05/06 01:15:20;;;;;;;;;;;;;;;19.62;41.23;101659.65;102800;1325;61855;-84
2022/05/06 01:18:05;;;;;;;;;;;;;;;19.62;41.25;101663.95;102748;1326;71657;-85
2022/05/06 01:21:09;;;;;;;;;;;;;;;19.62;41.28;101655.91;102839;1325;74880;-82
2022/05/06 01:23:57;;;;;;;;;;;;;;;19.62;41.17;101657.52;103103;1325;61328;-84
2022/05/06 01:26:32;;;;;;;;;;;;;;;19.62;41.23;101655.58;103135;1323;61268;-81
2022/05/06 01:29:21;;;;;;;;;;;;;;;19.61;41.26;101653.08;103248;1322;73978;-87
2022/05/06 01:32:25;;;;;;;;;;;;;;;;;;;;;
2022/05/06 01:35:09;;;;;;;;;;;;;;;19.62;41.31;101658.75;102746;1329;61176;-83
2022/05/06 01:37:43;;;;;;;;;;;;;;;19.62;41.30;101658.05;102564;1330;61234;-82
2022/05/06 01:40:36;;;;;;;;;;;;;;;19.61;41.29;101659.52;102621;1328;72956;-85
2022/05/06 01:43:10;;;;;;;;;;;;;;;19.61;41.24;101656.49;102520;1332;74972;-84
2022/05/06 01:45:51;;;;;;;;;;;;;;;19.61;41.31;101655.23;102722;1329;61549;-85
2022/05/06 01:48:55;;;;;;;;;;;;;;;19.60;41.30;101650.27;102733;1329;61432;-84
2022/05/06 01:51:41;;;;;;;;;;;;;;;19.61;41.23;101654.91;102725;1326;73901;-84
2022/05/06 01:54:14;;;;;;;;;;;;;;;19.60;41.23;101657.05;102743;1325;74795;-85
2022/05/06 01:56:49;;;;;;;;;;;;;;;19.60;41.28;101657.42;102782;1325;61360;-83
2022/05/06 01:59:28;;;;;;;;;;;;;;;;;;;;;
2022/05/06 02:02:43;;;;;;;;;;;;;;;19.60;41.33;101659.20;102505;1332;71572;-85
2022/05/06 02:05:29;;;;;;;;;;;;;;;19.60;41.32;101664.02;102211;1335;75800;-83
2022/05/06 02:08:15;;;;;;;;;;;;;;;19.60;41.28;101662.08;102347;1335;61325;-82
2022/05/06 02:11:01;;;;;;;;;;;;;;;;;;;;;
2022/05/06 02:17:16;;;;;;;;;;;;;;;19.59;41.28;101654.95;102032;1339;75184;-85
2022/05/06 02:20:09;;;;;;;;;;;;;;;19.60;41.32;101658.69;102039;1336;61417;-86
2022/05/06 02:22:49;;;;;;;;;;;;;;;19.60;41.37;101663.87;102360;1335;61770;-87
2022/05/06 02:25:26;;;;;;;;;;;;;;;19.60;41.41;101664.59;102357;1335;72678;-86
2022/05/06 02:28:08;;;;;;;;;;;;;;;;;;;;;
2022/05/06 02:33:57;;;;;;;;;;;;;;;19.59;41.32;101671.75;102332;1335;61247;-83
2022/05/06 02:36:34;;;;;;;;;;;;;;;19.59;41.35;101670.35;102342;1335;74223;-85
2022/05/06 02:39:49;;;;;;;;;;;;;;;;;;;;;
2022/05/06 02:42:36;;;;;;;;;;;;;;;19.58;41.38;101667.88;102518;1332;61303;-83
2022/05/06 02:45:50;;;;;;;;;;;;;;;;;;;;;
2022/05/06 02:48:30;;;;;;;;;;;;;;;19.58;41.45;101670.36;102458;1333;72823;-83
2022/05/06 02:51:13;;;;;;;;;;;;;;;19.58;41.31;101673.59;102471;1332;74755;-86
2022/05/06 02:53:47;;;;;;;;;;;;;;;19.59;41.45;101673.58;102675;1323;61771;-85
2022/05/06 02:56:40;;;;;;;;;;;;;;;19.58;41.22;101671.45;103117;1323;61286;-84
2022/05/06 02:59:08;;;;;;;;;;;;;;;19.58;41.42;101671.45;103937;1318;72926;-85
2022/05/06 03:01:50;;;;;;;;;;;;;;;;;;;;;
2022/05/06 03:04:26;;;;;;;;;;;;;;;19.58;41.39;101676.63;104047;1318;61347;-82
2022/05/06 03:07:14;;;;;;;;;;;;;;;19.57;41.46;101676.14;104080;1318;61651;-86
2022/05/06 03:10:00;;;;;;;;;;;;;;;19.57;41.31;101680.59;103155;1323;73867;-83
2022/05/06 03:12:59;;;;;;;;;;;;;;;;;;;;;
2022/05/06 03:15:52;;;;;;;;;;;;;;;19.57;41.54;101683.30;103075;1323;61156;-84
2022/05/06 03:18:33;;;;;;;;;;;;;;;;;;;;;
2022/05/06 03:21:11;;;;;;;;;;;;;;;;;;;;;
2022/05/06 03:23:59;;;;;;;;;;;;;;;19.57;41.39;101686.66;103830;1317;75802;-84
2022/05/06 03:26:27;;;;;;;;;;;;;;;19.57;41.42;101687.57;103831;1318;61325;-82
2022/05/06 03:29:22;;;;;;;;;;;;;;;19.57;41.45;101688.27;102959;1325;61520;-84
2022/05/06 03:32:20;;;;;;;;;;;;;;;19.58;41.42;101692.01;102875;1325;71451;-88
2022/05/06 03:35:13;;;;;;;;;;;;;;;;;;;;;
2022/05/06 03:37:48;;;;;;;;;;;;;;;19.58;41.33;101687.52;103022;1326;61384;-86
2022/05/06 03:40:58;;;;;;;;;;;;;;;19.58;41.27;101686.63;102578;1329;61964;-83
2022/05/06 03:43:45;;;;;;;;;;;;;;;19.58;41.25;101685.90;102598;1329;73150;-83
2022/05/06 03:46:39;;;;;;;;;;;;;;;19.59;41.18;101691.41;102734;1324;75146;-84
2022/05/06 03:49:29;;;;;;;;;;;;;;;;;;;;;
2022/05/06 03:52:15;;;;;;;;;;;;;;;19.59;41.11;101691.23;102989;1323;61096;-85
2022/05/06 03:54:51;;;;;;;;;;;;;;;19.59;41.17;101694.08;102767;1325;74054;-88
2022/05/06 03:57:25;;;;;;;;;;;;;;;19.60;41.01;101696.19;103058;1323;74859;-81
2022/05/06 03:59:57;;;;;;;;;;;;;;;19.60;40.99;101701.55;103103;1323;61310;-82
2022/05/06 04:05:48;;;;;;;;;;;;;;;19.60;41.01;101705.65;102270;1332;72923;-81
2022/05/06 04:08:32;;;;;;;;;;;;;;;19.59;41.00;101707.29;102557;1329;75993;-82
2022/05/06 04:11:06;;;;;;;;;;;;;;;19.59;41.01;101711.94;102612;1329;61220;-82
2022/05/06 04:13:40;;;;;;;;;;;;;;;19.59;41.09;101717.86;102631;1329;61489;-82
2022/05/06 04:16:09;;;;;;;;;;;;;;;19.58;41.04;101720.90;102528;1329;73027;-84
2022/05/06 04:18:39;;;;;;;;;;;;;;;19.58;41.01;101724.31;102660;1326;73958;-84
2022/05/06 04:24:02;;;;;;;;;;;;;;;19.56;40.97;101726.36;102734;1324;61438;-80
2022/05/06 04:26:36;;;;;;;;;;;;;;;19.56;40.95;101728.70;102582;1325;72704;-83
2022/05/06 04:29:10;;;;;;;;;;;;;;;19.55;40.94;101728.73;102865;1323;74923;-84
2022/05/06 04:31:57;;;;;;;;;;;;;;;;;;;;;
2022/05/06 04:34:34;;;;;;;;;;;;;;;19.55;40.89;101732.71;102784;1324;61418;-81
2022/05/06 04:37:03;;;;;;;;;;;;;;;19.53;40.84;101734.55;102820;1324;73121;-81
2022/05/06 04:39:29;;;;;;;;;;;;;;;19.53;40.81;101739.93;102561;1323;76055;-83
2022/05/06 04:42:02;;;;;;;;;;;;;;;19.52;40.73;101737.45;102758;1312;61452;-82
2022/05/06 04:44:27;;;;;;;;;;;;;;;19.52;40.74;101738.38;103913;1312;61671;-84
2022/05/06 04:46:53;;;;;;;;;;;;;;;19.51;40.62;101737.89;104039;1312;61423;-84
2022/05/06 04:49:21;;;;;;;;;;;;;;;19.45;40.25;101740.66;104004;1312;61784;-80
2022/05/06 04:51:47;;;;;;;;;;;;;;;19.41;40.16;101747.47;103811;1311;61562;-82
2022/05/06 04:54:13;;;;;;;;;;;;;;;19.40;40.13;101748.40;103965;1312;61284;-82
2022/05/06 04:56:48;;;;;;;;;;;;;;;19.39;40.11;101751.14;103798;1312;74025;-82
2022/05/06 04:59:14;;;;;;;;;;;;;;;19.38;39.94;101751.73;103618;1312;75759;-81
2022/05/06 05:01:39;;;;;;;;;;;;;;;19.35;39.80;101751.69;103596;1312;61318;-81
2022/05/06 05:04:05;;;;;;;;;;;;;;;19.34;39.60;101754.25;103455;1312;61515;-80
2022/05/06 05:06:31;;;;;;;;;;;;;;;19.30;39.56;101759.98;103342;1312;59435;-80
2022/05/06 05:08:56;;;;;;;;;;;;;;;19.28;39.46;101763.63;103555;1309;61505;-81
2022/05/06 05:11:22;;;;;;;;;;;;;;;19.29;39.27;101760.73;103748;1309;61330;-81
2022/05/06 05:13:48;;;;;;;;;;;;;;;19.31;39.24;101757.61;103792;1309;61345;-81
2022/05/06 05:16:14;;;;;;;;;;;;;;;19.32;39.22;101757.41;103701;1310;61330;-81
2022/05/06 05:19:04;;;;;;;;;;;;;;;19.34;39.20;101755.30;104207;1306;61419;-81
2022/05/06 05:21:29;;;;;;;;;;;;;;;19.33;38.90;101754.28;103797;1312;73751;-80
2022/05/06 05:23:55;;;;;;;;;;;;;;;19.35;38.78;101759.90;103410;1314;61387;-82
2022/05/06 05:26:24;;;;;;;;;;;;;;;19.37;38.89;101756.22;103492;1312;61429;-81
2022/05/06 05:28:50;;;;;;;;;;;;;;;19.41;38.66;101760.15;103525;1311;74117;-80
2022/05/06 05:31:15;;;;;;;;;;;;;;;19.44;38.74;101763.41;103574;1312;61374;-82
2022/05/06 05:33:41;;;;;;;;;;;;;;;19.47;38.39;101767.70;103593;1312;61403;-81
2022/05/06 05:36:06;;;;;;;;;;;;;;;19.50;38.48;101769.70;103631;1312;61297;-81
2022/05/06 05:38:32;;;;;;;;;;;;;;;19.53;38.41;101777.27;103739;1311;61374;-80
2022/05/06 05:40:59;;;;;;;;;;;;;;;19.55;38.44;101770.70;103848;1309;72894;-80
2022/05/06 05:48:53;;;;;;;;;;;;;;;19.64;38.08;101776.55;103728;1312;61566;-81
2022/05/06 05:51:19;;;;;;;;;;;;;;;19.65;38.27;101777.89;103563;1312;62631;-82
2022/05/06 05:53:44;;;;;;;;;;;;;;;19.66;38.17;101778.55;103482;1312;61350;-82
2022/05/06 05:56:10;;;;;;;;;;;;;;;19.58;37.83;101777.34;103591;1314;59876;-84
2022/05/06 05:58:44;;;;;;;;;;;;;;;19.38;37.47;101772.96;103825;1306;61404;-82
2022/05/06 06:01:09;;;;;;;;;;;;;;;19.28;37.61;101772.41;103920;1306;60434;-82
2022/05/06 06:03:36;;;;;;;;;;;;;;;19.30;37.64;101771.59;104070;1305;61291;-82
2022/05/06 06:06:01;;;;;;;;;;;;;;;19.31;37.53;101775.98;103917;1306;61261;-83
2022/05/06 06:08:37;;;;;;;;;;;;;;;19.36;37.41;101779.13;104034;1305;61421;-83
2022/05/06 06:11:03;;;;;;;;;;;;;;;19.40;37.40;101778.38;105535;1305;59384;-81
2022/05/06 06:13:30;;;;;;;;;;;;;;;19.46;37.36;101782.79;105426;1305;59354;-81
2022/05/06 06:15:56;;;;;;;;;;;;;;;19.50;37.44;101789.20;104183;1303;74686;-81
2022/05/06 06:18:26;;;;;;;;;;;;;;;19.54;37.34;101789.34;104055;1303;61327;-80
2022/05/06 06:20:54;;;;;;;;;;;;;;;19.58;37.32;101792.35;104290;1303;61447;-83
2022/05/06 06:23:20;;;;;;;;;;;;;;;19.60;37.43;101790.65;104284;1303;71868;-81
2022/05/06 06:25:46;;;;;;;;;;;;;;;19.61;37.19;101789.15;104268;1306;61294;-82
2022/05/06 06:28:50;;;;;;;;;;;;;;;19.62;37.31;101792.88;104250;1306;61309;-82
2022/05/06 06:31:44;;;;;;;;;;;;;;;19.63;37.09;101788.88;103611;1310;61297;-82
2022/05/06 06:37:44;;;;;;;;;;;;;;;19.64;36.93;101790.82;103723;1311;75189;-83
2022/05/06 06:40:19;;;;;;;;;;;;;;;19.64;37.06;101785.44;103383;1317;62132;-82
2022/05/06 06:43:13;;;;;;;;;;;;;;;19.64;36.85;101782.94;103060;1318;62036;-83
2022/05/06 06:45:50;;;;;;;;;;;;;;;19.64;36.91;101777.80;102424;1324;73263;-81
2022/05/06 06:48:21;;;;;;;;;;;;;;;19.63;36.70;101780.31;102456;1321;76726;-81
2022/05/06 06:50:46;;;;;;;;;;;;;;;19.65;36.75;101778.97;102355;1325;62099;-80
2022/05/06 06:53:14;;;;;;;;;;;;;;;19.67;36.77;101777.64;97032;1326;7192504;-80
2022/05/06 06:58:45;;;;;;;;;;;;;;;19.59;36.37;101775.30;101546;1332;73981;-83
2022/05/06 07:01:35;;;;;;;;;;;;;;;;;;;;;
2022/05/06 07:04:07;;;;;;;;;;;;;;;19.47;36.30;101769.14;101817;1326;63010;-82
2022/05/06 07:12:10;;;;;;;;;;;;;;;19.54;36.45;101773.45;102444;1320;77798;-84
2022/05/06 07:14:56;;;;;;;;;;;;;;;19.57;36.44;101774.02;102407;1320;62125;-83
2022/05/06 07:17:29;;;;;;;;;;;;;;;19.59;36.47;101775.87;103127;1311;62154;-82
2022/05/06 07:19:54;;;;;;;;;;;;;;;19.61;36.54;101772.74;103738;1311;62325;-81
2022/05/06 07:22:20;;;;;;;;;;;;;;;19.62;36.42;101777.35;103995;1305;62200;-80
2022/05/06 07:24:48;;;;;;;;;;;;;;;19.62;36.32;101779.29;104296;1303;62296;-81
2022/05/06 07:27:13;;;;;;;;;;;;;;;19.63;36.26;101783.16;104055;1305;62124;-81
2022/05/06 07:30:06;;;;;;;;;;;;;;;19.64;36.41;101786.35;104031;1304;62270;-81
2022/05/06 07:32:32;;;;;;;;;;;;;;;19.66;36.15;101788.59;103714;1308;75507;-80
2022/05/06 07:34:57;;;;;;;;;;;;;;;19.67;36.28;101783.70;103725;1308;62160;-81
2022/05/06 07:37:24;;;;;;;;;;;;;;;19.69;36.15;101784.86;104292;1302;62051;-80
2022/05/06 07:39:50;;;;;;;;;;;;;;;19.70;36.15;101781.05;104232;1303;62094;-80
2022/05/06 07:42:16;;;;;;;;;;;;;;;19.70;36.04;101780.30;104415;1302;62080;-80
2022/05/06 07:44:42;;;;;;;;;;;;;;;19.70;36.07;101781.75;104703;1302;62115;-80
2022/05/06 07:47:08;;;;;;;;;;;;;;;19.69;35.87;101782.16;104449;1302;61983;-81
2022/05/06 07:49:35;;;;;;;;;;;;;;;19.67;35.98;101787.48;104345;1303;62118;-80
2022/05/06 07:52:03;;;;;;;;;;;;;;;19.63;35.85;101787.84;104038;1302;62251;-80
2022/05/06 07:54:28;;;;;;;;;;;;;;;19.59;35.71;101783.73;104050;1303;60709;-80
2022/05/06 07:56:54;;;;;;;;;;;;;;;19.53;35.41;101781.00;104343;1302;62058;-79
2022/05/06 07:59:20;;;;;;;;;;;;;;;19.48;35.19;101782.33;104256;1303;62002;-79
2022/05/06 08:04:41;;;;;;;;;;;;;;;19.37;34.78;101778.88;104178;1302;76733;-80
2022/05/06 08:07:06;;;;;;;;;;;;;;;19.36;35.04;101783.43;103984;1303;62111;-82
2022/05/06 08:09:32;;;;;;;;;;;;;;;19.40;35.17;101780.39;104608;1298;62095;-81
2022/05/06 08:11:58;;;;;;;;;;;;;;;19.44;35.13;101779.45;105975;1299;60436;-81
2022/05/06 08:14:24;;;;;;;;;;;;;;;19.49;35.22;101783.15;105692;1299;62052;-81
2022/05/06 08:16:51;;;;;;;;;;;;;;;19.49;35.20;101785.98;104701;1299;62386;-81
2022/05/06 08:19:20;;;;;;;;;;;;;;;19.47;35.20;101787.17;104711;1299;62097;-80
2022/05/06 08:21:45;;;;;;;;;;;;;;;19.50;35.12;101793.27;104598;1299;62072;-81
2022/05/06 08:24:11;;;;;;;;;;;;;;;19.49;34.83;101796.92;104548;1299;63896;-81
2022/05/06 08:26:37;;;;;;;;;;;;;;;19.47;34.65;101802.90;104915;1298;62045;-82
2022/05/06 08:29:05;;;;;;;;;;;;;;;19.46;34.59;101798.64;104738;1299;62096;-80
2022/05/06 08:31:37;;;;;;;;;;;;;;;19.48;34.70;101800.89;104605;1299;62197;-82
2022/05/06 08:34:09;;;;;;;;;;;;;;;19.49;34.78;101800.98;104721;1299;76820;-81
2022/05/06 08:36:38;;;;;;;;;;;;;;;19.53;34.65;101797.61;104680;1299;61986;-81
2022/05/06 08:39:07;;;;;;;;;;;;;;;19.56;34.48;101792.64;104589;1298;61491;-81
2022/05/06 08:41:36;;;;;;;;;;;;;;;19.56;34.42;101782.23;104537;1299;71570;-81
2022/05/06 08:52:31;;;;;;;;;;;;;;;19.54;33.68;101778.09;104315;1299;72695;-79
2022/05/06 08:54:57;;;;;;;;;;;;;;;19.53;33.47;101774.38;104424;1299;75827;-83
2022/05/06 08:57:22;;;;;;;;;;;;;;;19.56;33.59;101774.92;104327;1299;62559;-80
2022/05/06 08:59:52;;;;;;;;;;;;;;;19.61;33.55;101774.52;104341;1299;62053;-80
2022/05/06 09:02:18;;;;;;;;;;;;;;;19.65;33.61;101776.14;104358;1299;72674;-82
2022/05/06 09:04:44;;;;;;;;;;;;;;;19.66;33.54;101782.11;104231;1299;62171;-81
2022/05/06 09:07:14;;;;;;;;;;;;;;;19.68;33.46;101769.90;104344;1299;62293;-80
2022/05/06 09:09:39;;;;;;;;;;;;;;;19.70;33.48;101776.22;104376;1298;63043;-81
2022/05/06 09:17:56;;;;;;;;;;;;;;;19.78;34.08;101771.55;104488;1297;61928;-82
2022/05/06 09:20:22;;;;;;;;;;;;;;;19.79;33.85;101769.50;104375;1297;62748;-80
2022/05/06 09:22:51;;;;;;;;;;;;;;;19.80;33.84;101764.13;104205;1299;62493;-80
2022/05/06 09:25:35;;;;;;;;;;;;;;;19.82;33.68;101764.08;104094;1297;76006;-80
2022/05/06 09:28:01;;;;;;;;;;;;;;;19.82;33.88;101760.30;104436;1299;61940;-80
2022/05/06 09:30:27;;;;;;;;;;;;;;;19.82;33.77;101757.63;104505;1299;62103;-80
2022/05/06 09:32:54;;;;;;;;;;;;;;;19.82;33.57;101758.52;104638;1297;62526;-80
2022/05/06 09:35:20;;;;;;;;;;;;;;;19.83;33.72;101760.24;104542;1299;62049;-82
2022/05/06 09:37:47;;;;;;;;;;;;;;;19.83;33.71;101765.05;104495;1298;62475;-80
2022/05/06 09:40:14;;;;;;;;;;;;;;;19.82;33.44;101765.48;105750;1298;61685;-80
2022/05/06 09:42:43;;;;;;;;;;;;;;;19.83;33.78;101759.17;104592;1299;72284;-80
2022/05/06 09:45:10;;;;;;;;;;;;;;;19.84;33.76;101758.92;104777;1296;75583;-80
2022/05/06 09:47:36;;;;;;;;;;;;;;;19.84;33.64;101749.10;104795;1297;62069;-81
2022/05/06 09:50:02;;;;;;;;;;;;;;;19.86;33.96;101745.23;104549;1299;62189;-81
2022/05/06 09:52:28;;;;;;;;;;;;;;;19.87;33.75;101744.52;105124;1297;62209;-81
2022/05/06 09:54:53;;;;;;;;;;;;;;;19.85;33.46;101741.56;104201;1299;62107;-80
2022/05/06 09:57:19;;;;;;;;;;;;;;;19.84;33.32;101741.80;104437;1297;62190;-80
2022/05/06 10:00:08;;;;;;;;;;;;;;;19.84;33.33;101740.53;104278;1298;62117;-80
2022/05/06 10:02:37;;;;;;;;;;;;;;;19.86;33.26;101739.03;103700;1305;62856;-81
2022/05/06 10:05:03;;;;;;;;;;;;;;;19.86;32.96;101735.42;105294;1305;72630;-80
2022/05/06 10:07:28;;;;;;;;;;;;;;;19.86;32.94;101736.87;105336;1305;60246;-80
2022/05/06 10:10:02;;;;;;;;;;;;;;;19.84;32.87;101738.58;105437;1305;60281;-80
2022/05/06 10:12:29;;;;;;;;;;;;;;;19.80;32.48;101746.27;105295;1305;60580;-80
2022/05/06 10:14:56;;;;;;;;;;;;;;;19.79;32.23;101736.81;105153;1304;73191;-81
2022/05/06 10:17:40;;;;;;;;;;;;;;;19.79;32.13;101733.62;103927;1304;75440;-81
2022/05/06 10:20:06;;;;;;;;;;;;;;;19.78;32.10;101737.60;104032;1306;62137;-80
2022/05/06 10:22:50;;;;;;;;;;;;;;;19.76;31.97;101733.20;104967;1304;61274;-81
2022/05/06 10:25:34;;;;;;;;;;;;;;;19.74;31.65;101739.56;103921;1305;72596;-81
2022/05/06 10:34:11;;;;;;;;;;;;;;;19.72;31.31;101730.05;104213;1305;62015;-81
2022/05/06 10:36:44;;;;;;;;;;;;;;;19.72;31.26;101717.38;105438;1305;72852;-82
2022/05/06 10:39:29;;;;;;;;;;;;;;;19.71;31.23;101711.52;105077;1299;75472;-83
2022/05/06 10:42:14;;;;;;;;;;;;;;;19.70;31.13;101709.45;104762;1299;62031;-81
2022/05/06 10:44:44;;;;;;;;;;;;;;;19.69;31.26;101705.38;104651;1299;62059;-81
2022/05/06 10:47:09;;;;;;;;;;;;;;;19.69;31.06;101697.19;104458;1299;74179;-81
2022/05/06 10:49:38;;;;;;;;;;;;;;;19.69;31.19;101696.23;104374;1299;62075;-82
2022/05/06 10:52:15;;;;;;;;;;;;;;;19.72;31.23;101692.35;104532;1299;61959;-81
2022/05/06 10:54:42;;;;;;;;;;;;;;;19.76;31.14;101693.21;105209;1299;61971;-81
2022/05/06 10:57:07;;;;;;;;;;;;;;;19.79;31.21;101691.80;104950;1299;62176;-81
2022/05/06 10:59:52;;;;;;;;;;;;;;;19.81;31.19;101691.58;105133;1299;60407;-81
2022/05/06 11:02:20;;;;;;;;;;;;;;;19.82;31.16;101681.35;105252;1299;61974;-80
2022/05/06 11:04:58;;;;;;;;;;;;;;;19.84;31.05;101679.30;105210;1299;61959;-81
2022/05/06 11:07:24;;;;;;;;;;;;;;;19.85;31.11;101688.17;105346;1299;72764;-81
2022/05/06 11:09:51;;;;;;;;;;;;;;;19.86;30.74;101686.11;105084;1298;60290;-80
2022/05/06 11:12:29;;;;;;;;;;;;;;;19.88;30.85;101683.91;105987;1297;60529;-82
2022/05/06 11:14:55;;;;;;;;;;;;;;;19.88;31.03;101685.70;106006;1297;60712;-80
2022/05/06 11:17:22;;;;;;;;;;;;;;;19.89;30.97;101675.27;105945;1298;61046;-80
2022/05/06 11:19:47;;;;;;;;;;;;;;;19.91;30.93;101670.32;106115;1298;60674;-80
2022/05/06 11:22:13;;;;;;;;;;;;;;;19.93;31.11;101659.67;106054;1298;60275;-80
2022/05/06 11:24:38;;;;;;;;;;;;;;;19.94;31.13;101663.02;105262;1298;62116;-81
2022/05/06 11:27:17;;;;;;;;;;;;;;;19.95;30.98;101664.95;105189;1299;62393;-80
2022/05/06 11:30:00;;;;;;;;;;;;;;;19.93;30.96;101663.05;106082;1297;74708;-80
2022/05/06 11:32:29;;;;;;;;;;;;;;;19.95;30.91;101661.41;106051;1297;61396;-81
2022/05/06 11:34:55;;;;;;;;;;;;;;;19.92;30.76;101655.41;106015;1299;61516;-82
2022/05/06 11:37:24;;;;;;;;;;;;;;;19.91;30.93;101651.73;106051;1297;72650;-81
2022/05/06 11:39:50;;;;;;;;;;;;;;;19.93;31.04;101650.58;106005;1298;76461;-82
2022/05/06 11:42:18;;;;;;;;;;;;;;;19.96;31.14;101653.27;104735;1299;62083;-82
2022/05/06 11:47:28;;;;;;;;;;;;;;;19.99;30.82;101645.63;105283;1299;73148;-82
2022/05/06 11:49:53;;;;;;;;;;;;;;;20.00;31.12;101643.76;105308;1299;62152;-81
2022/05/06 11:52:19;;;;;;;;;;;;;;;20.02;31.62;101640.27;105220;1298;62091;-80
2022/05/06 11:54:45;;;;;;;;;;;;;;;20.04;31.41;101646.20;105224;1297;60438;-81
2022/05/06 11:57:10;;;;;;;;;;;;;;;20.04;31.11;101641.04;105331;1297;62154;-81
2022/05/06 11:59:37;;;;;;;;;;;;;;;20.00;30.65;101636.26;105211;1299;74153;-81
2022/05/06 12:02:09;;;;;;;;;;;;;;;19.97;30.57;101633.36;105252;1298;62085;-81
2022/05/06 12:04:35;;;;;;;;;;;;;;;19.95;30.45;101638.13;105278;1298;62089;-79
2022/05/06 12:07:09;;;;;;;;;;;;;;;19.93;30.39;101629.32;105138;1298;62071;-80
2022/05/06 12:09:44;;;;;;;;;;;;;;;19.93;30.46;101626.29;105164;1299;73041;-80
2022/05/06 12:12:13;;;;;;;;;;;;;;;19.94;30.66;101619.60;105130;1299;74542;-80
2022/05/06 12:14:49;;;;;;;;;;;;;;;19.95;30.77;101614.36;105139;1299;61972;-81
2022/05/06 12:17:15;;;;;;;;;;;;;;;19.97;30.95;101618.40;105238;1299;60755;-80
2022/05/06 12:19:44;;;;;;;;;;;;;;;19.98;30.99;101620.27;105138;1299;60545;-80
2022/05/06 12:22:13;;;;;;;;;;;;;;;19.99;31.06;101613.48;105099;1299;76628;-81
2022/05/06 12:24:43;;;;;;;;;;;;;;;20.00;31.09;101607.88;105172;1299;62047;-80
2022/05/06 12:27:08;;;;;;;;;;;;;;;20.00;31.23;101605.02;104896;1299;61951;-81
2022/05/06 12:29:37;;;;;;;;;;;;;;;20.01;31.28;101607.64;105218;1299;62103;-80
2022/05/06 12:32:04;;;;;;;;;;;;;;;20.01;31.35;101609.59;105089;1298;76576;-80
2022/05/06 12:34:32;;;;;;;;;;;;;;;20.02;31.49;101609.90;105221;1299;62062;-80
2022/05/06 12:37:28;;;;;;;;;;;;;;;20.02;31.57;101599.54;105185;1299;62092;-82
2022/05/06 12:39:59;;;;;;;;;;;;;;;20.02;31.45;101596.29;105202;1299;72758;-81
2022/05/06 12:42:45;;;;;;;;;;;;;;;20.02;31.57;101590.23;105114;1299;76572;-82
2022/05/06 12:45:24;;;;;;;;;;;;;;;20.03;31.62;101595.02;105227;1299;62069;-82
2022/05/06 12:50:47;;;;;;;;;;;;;;;20.03;31.67;101596.61;105163;1299;72527;-85
2022/05/06 12:53:33;;;;;;;;;;;;;;;20.03;31.78;101598.38;105294;1299;74284;-85
2022/05/06 12:56:04;;;;;;;;;;;;;;;20.04;31.89;101593.90;105317;1297;62098;-84
2022/05/06 12:58:58;;;;;;;;;;;;;;;20.04;31.99;101594.77;105334;1299;62155;-82
2022/05/06 13:01:52;;;;;;;;;;;;;;;20.04;31.93;101589.06;104641;1305;71593;-81
2022/05/06 13:04:41;;;;;;;;;;;;;;;20.03;32.00;101586.23;104760;1305;76850;-82
2022/05/06 13:07:29;;;;;;;;;;;;;;;20.04;31.86;101584.58;104802;1305;62103;-83
2022/05/06 13:10:37;;;;;;;;;;;;;;;;;;;;;
2022/05/06 13:13:19;;;;;;;;;;;;;;;20.04;32.04;101581.17;104790;1305;73884;-86
2022/05/06 13:16:12;;;;;;;;;;;;;;;20.05;31.95;101577.56;104651;1305;74359;-84
2022/05/06 13:18:43;;;;;;;;;;;;;;;20.05;31.94;101569.34;104733;1305;62050;-82
2022/05/06 13:21:18;;;;;;;;;;;;;;;20.06;32.20;101564.50;104695;1305;62368;-81
2022/05/06 13:23:57;;;;;;;;;;;;;;;20.05;32.09;101559.14;104717;1305;72928;-82
2022/05/06 13:26:33;;;;;;;;;;;;;;;20.05;32.13;101558.26;104868;1305;75503;-82
2022/05/06 13:29:18;;;;;;;;;;;;;;;;;;;;;
2022/05/06 13:32:00;;;;;;;;;;;;;;;20.06;32.29;101555.20;104850;1305;62339;-84
2022/05/06 13:34:37;;;;;;;;;;;;;;;20.06;32.21;101554.66;104717;1305;72236;-85
2022/05/06 13:37:04;;;;;;;;;;;;;;;20.06;32.13;101553.73;104876;1305;76688;-83
2022/05/06 13:39:55;;;;;;;;;;;;;;;;;;;;;
2022/05/06 13:42:31;;;;;;;;;;;;;;;20.07;32.22;101547.28;105178;1299;61986;-82
2022/05/06 13:45:06;;;;;;;;;;;;;;;;;;;;;
2022/05/06 13:47:42;;;;;;;;;;;;;;;20.06;32.25;101536.77;105199;1299;76781;-83
2022/05/06 13:50:40;;;;;;;;;;;;;;;20.06;32.30;101530.86;105321;1299;62033;-82
2022/05/06 13:59:04;;;;;;;;;;;;;;;20.07;32.32;101528.67;104621;1305;77028;-81
2022/05/06 14:02:03;;;;;;;;;;;;;;;20.07;32.07;101531.17;104219;1311;61981;-82
2022/05/06 14:04:54;;;;;;;;;;;;;;;;;;;;;
2022/05/06 14:07:35;;;;;;;;;;;;;;;20.08;32.24;101526.84;104212;1313;73978;-81
2022/05/06 14:10:23;;;;;;;;;;;;;;;20.08;32.04;101523.23;104282;1313;76761;-83
2022/05/06 14:13:09;;;;;;;;;;;;;;;;;;;;;
2022/05/06 14:15:48;;;;;;;;;;;;;;;20.09;32.21;101519.79;104137;1313;62108;-84
2022/05/06 14:18:23;;;;;;;;;;;;;;;20.10;32.17;101521.01;104274;1312;73047;-82
2022/05/06 14:21:21;;;;;;;;;;;;;;;20.10;32.18;101521.33;104326;1313;76031;-86
2022/05/06 14:23:57;;;;;;;;;;;;;;;20.12;32.35;101523.44;104356;1313;62099;-87
2022/05/06 14:26:32;;;;;;;;;;;;;;;20.11;32.27;101522.38;104247;1312;61975;-82
2022/05/06 14:29:25;;;;;;;;;;;;;;;20.12;32.37;101520.55;103619;1317;71482;-82
2022/05/06 14:32:00;;;;;;;;;;;;;;;20.13;32.39;101517.13;103615;1317;76559;-82
2022/05/06 14:34:28;;;;;;;;;;;;;;;20.13;32.33;101513.70;104050;1313;62064;-83
2022/05/06 14:36:57;;;;;;;;;;;;;;;20.14;32.36;101511.70;104179;1312;62049;-82
2022/05/06 14:39:26;;;;;;;;;;;;;;;20.14;32.51;101513.66;104480;1305;73277;-81
2022/05/06 14:42:01;;;;;;;;;;;;;;;20.15;32.59;101516.65;104816;1305;75669;-82